Accueil
METAR-TAF:

METAR-TAF

Aéroports :

Orange Municipal Airport

Orange, Massachusetts, États-Unis

latitude: 42-34-18N, longitude: 072-16-39W, altitude: 169 m

Observation

Le bulletin a été fait il y a 19 minutes, à 19:52 UTC
Vent 17 kt de nord-ouest avec des rafales jusqu'à 34 kt
Température 7°C
Humidité 57%
Pression 990 hPa
Visibilité: 16.1 km
Nuages fragmentés à une hauteur de 3800 ft
Nuages fragmentés à une hauteur de 4700 ft
Ciel couvert à une hauteur de 8000 ft
pluie faible

METAR: KORE 101952Z AUTO 31017G34KT 10SM -RA BKN038 BKN047 OVC080 07/M01 A2924 RMK AO2 PK WND 32034/1943 RAB1853E03B46 SLP906 P0000 T00671011

Heure: 16:11 (20:11 UTC)


TAF: absent

Observations et prévisions météorologiques de plus de 4000 aéroports (messages METAR et TAF).

Les stations disponibles sont représentées par des disques jaunes et rouges sur la carte.

Passer la souris dessus pour voir le nom de la station.

Cliquer dessus pour voir les observations et prévisions météorologiques.

Pour changer de carte: cliquez sur les boutons verts avec une croix noire pour zoomer, sur le bouton vert avec un tiret pour effectuer un zoom arrière, ou sur les flèches vertes pour les cartes adjacentes.


METAR-TAF: